sensor_id;sensor_type;location;lat;lon;timestamp;pressure;altitude;pressure_sealevel;temperature;humidity
46583;BME280;32309;48.858;8.252;2022-11-23T00:00:04;98952.06;;;6.59;85.85
46583;BME280;32309;48.858;8.252;2022-11-23T00:02:05;98953.06;;;6.57;85.60
46583;BME280;32309;48.858;8.252;2022-11-23T00:04:06;98961.81;;;6.54;84.20
46583;BME280;32309;48.858;8.252;2022-11-23T00:06:07;98952.53;;;6.52;85.17
46583;BME280;32309;48.858;8.252;2022-11-23T00:08:07;98959.53;;;6.49;84.99
46583;BME280;32309;48.858;8.252;2022-11-23T00:10:07;98957.97;;;6.47;84.62
46583;BME280;32309;48.858;8.252;2022-11-23T00:12:08;98964.78;;;6.48;84.76
46583;BME280;32309;48.858;8.252;2022-11-23T00:14:08;98965.81;;;6.45;84.72
46583;BME280;32309;48.858;8.252;2022-11-23T00:16:11;98954.75;;;6.43;84.08
46583;BME280;32309;48.858;8.252;2022-11-23T00:18:13;98959.91;;;6.43;84.51
46583;BME280;32309;48.858;8.252;2022-11-23T00:20:14;98958.16;;;6.44;85.17
46583;BME280;32309;48.858;8.252;2022-11-23T00:22:14;98960.72;;;6.44;84.96
46583;BME280;32309;48.858;8.252;2022-11-23T00:24:14;98960.66;;;6.45;84.60
46583;BME280;32309;48.858;8.252;2022-11-23T00:26:15;98957.97;;;6.47;83.65
46583;BME280;32309;48.858;8.252;2022-11-23T00:28:16;98966.41;;;6.49;84.01
46583;BME280;32309;48.858;8.252;2022-11-23T00:30:17;98962.94;;;6.50;83.85
46583;BME280;32309;48.858;8.252;2022-11-23T00:32:17;98970.66;;;6.50;83.63
46583;BME280;32309;48.858;8.252;2022-11-23T00:34:17;98960.25;;;6.52;84.68
46583;BME280;32309;48.858;8.252;2022-11-23T00:36:18;98961.00;;;6.54;85.15
46583;BME280;32309;48.858;8.252;2022-11-23T00:38:19;98958.44;;;6.54;84.00
46583;BME280;32309;48.858;8.252;2022-11-23T00:40:19;98954.94;;;6.55;84.53
46583;BME280;32309;48.858;8.252;2022-11-23T00:42:19;98963.38;;;6.57;84.11
46583;BME280;32309;48.858;8.252;2022-11-23T00:44:19;98959.88;;;6.58;83.88
46583;BME280;32309;48.858;8.252;2022-11-23T00:46:24;98970.09;;;6.59;84.06
46583;BME280;32309;48.858;8.252;2022-11-23T00:48:25;98964.84;;;6.61;83.68
46583;BME280;32309;48.858;8.252;2022-11-23T00:50:25;98968.34;;;6.60;83.21
46583;BME280;32309;48.858;8.252;2022-11-23T00:52:26;98963.09;;;6.61;83.77
46583;BME280;32309;48.858;8.252;2022-11-23T00:54:26;98972.47;;;6.62;84.12
46583;BME280;32309;48.858;8.252;2022-11-23T00:56:27;98974.31;;;6.60;83.97
46583;BME280;32309;48.858;8.252;2022-11-23T00:58:28;98980.19;;;6.62;84.92
46583;BME280;32309;48.858;8.252;2022-11-23T01:00:29;98972.56;;;6.61;84.82
46583;BME280;32309;48.858;8.252;2022-11-23T01:02:29;98971.75;;;6.60;84.12
46583;BME280;32309;48.858;8.252;2022-11-23T01:04:29;98971.84;;;6.59;84.15
46583;BME280;32309;48.858;8.252;2022-11-23T01:06:30;98980.47;;;6.58;84.47
46583;BME280;32309;48.858;8.252;2022-11-23T01:08:36;98984.81;;;6.57;84.65
46583;BME280;32309;48.858;8.252;2022-11-23T01:10:38;98980.69;;;6.55;83.21
46583;BME280;32309;48.858;8.252;2022-11-23T01:12:38;98980.69;;;6.55;83.34
46583;BME280;32309;48.858;8.252;2022-11-23T01:14:38;98981.59;;;6.54;83.88
46583;BME280;32309;48.858;8.252;2022-11-23T01:16:39;98973.13;;;6.52;83.42
46583;BME280;32309;48.858;8.252;2022-11-23T01:18:39;98977.66;;;6.48;82.49
46583;BME280;32309;48.858;8.252;2022-11-23T01:20:40;98984.53;;;6.47;83.17
46583;BME280;32309;48.858;8.252;2022-11-23T01:22:40;98986.38;;;6.45;83.30
46583;BME280;32309;48.858;8.252;2022-11-23T01:24:40;98979.47;;;6.46;84.07
46583;BME280;32309;48.858;8.252;2022-11-23T01:26:40;98987.31;;;6.44;83.87
46583;BME280;32309;48.858;8.252;2022-11-23T01:28:41;98985.66;;;6.43;83.44
46583;BME280;32309;48.858;8.252;2022-11-23T01:30:42;98988.97;;;6.45;84.58
46583;BME280;32309;48.858;8.252;2022-11-23T01:32:42;98987.31;;;6.44;83.15
46583;BME280;32309;48.858;8.252;2022-11-23T01:34:42;98989.88;;;6.44;83.44
46583;BME280;32309;48.858;8.252;2022-11-23T01:36:42;98991.53;;;6.45;83.18
46583;BME280;32309;48.858;8.252;2022-11-23T01:38:43;98997.59;;;6.44;83.24
46583;BME280;32309;48.858;8.252;2022-11-23T01:40:45;98989.78;;;6.46;83.46
46583;BME280;32309;48.858;8.252;2022-11-23T01:42:52;98990.59;;;6.46;83.57
46583;BME280;32309;48.858;8.252;2022-11-23T01:47:31;98993.91;;;6.48;83.96
46583;BME280;32309;48.858;8.252;2022-11-23T01:49:36;98995.69;;;6.48;84.11
46583;BME280;32309;48.858;8.252;2022-11-23T01:51:40;98994.81;;;6.47;84.00
46583;BME280;32309;48.858;8.252;2022-11-23T01:53:45;98998.41;;;6.45;83.10
46583;BME280;32309;48.858;8.252;2022-11-23T01:55:47;98998.41;;;6.45;83.37
46583;BME280;32309;48.858;8.252;2022-11-23T01:57:49;98998.50;;;6.43;83.87
46583;BME280;32309;48.858;8.252;2022-11-23T01:59:50;99005.31;;;6.44;84.05
46583;BME280;32309;48.858;8.252;2022-11-23T02:01:51;98998.41;;;6.45;83.31
46583;BME280;32309;48.858;8.252;2022-11-23T02:03:52;98999.25;;;6.45;83.94
46583;BME280;32309;48.858;8.252;2022-11-23T02:05:59;98998.31;;;6.46;83.45
46583;BME280;32309;48.858;8.252;2022-11-23T02:08:02;99006.03;;;6.46;84.08
46583;BME280;32309;48.858;8.252;2022-11-23T02:10:04;99007.06;;;6.44;84.00
46583;BME280;32309;48.858;8.252;2022-11-23T02:12:11;99006.03;;;6.46;84.47
46583;BME280;32309;48.858;8.252;2022-11-23T02:14:12;99000.88;;;6.46;83.95
46583;BME280;32309;48.858;8.252;2022-11-23T02:16:13;99006.97;;;6.45;83.97
46583;BME280;32309;48.858;8.252;2022-11-23T02:18:14;99011.28;;;6.45;83.42
46583;BME280;32309;48.858;8.252;2022-11-23T02:20:20;99004.47;;;6.44;84.00
46583;BME280;32309;48.858;8.252;2022-11-23T02:22:36;99006.13;;;6.45;83.92
46583;BME280;32309;48.858;8.252;2022-11-23T02:24:41;99005.31;;;6.44;83.88
46583;BME280;32309;48.858;8.252;2022-11-23T02:26:48;99014.06;;;6.42;84.08
46583;BME280;32309;48.858;8.252;2022-11-23T02:28:53;99004.56;;;6.42;83.61
46583;BME280;32309;48.858;8.252;2022-11-23T02:31:00;99002.00;;;6.42;84.80
46583;BME280;32309;48.858;8.252;2022-11-23T02:33:02;98995.19;;;6.41;84.54
46583;BME280;32309;48.858;8.252;2022-11-23T02:35:03;99002.91;;;6.41;84.11
46583;BME280;32309;48.858;8.252;2022-11-23T02:37:03;99002.91;;;6.41;84.75
46583;BME280;32309;48.858;8.252;2022-11-23T02:39:05;99001.28;;;6.40;84.38
46583;BME280;32309;48.858;8.252;2022-11-23T02:41:25;98999.63;;;6.39;84.37
46583;BME280;32309;48.858;8.252;2022-11-23T02:43:25;98998.88;;;6.37;83.82
46583;BME280;32309;48.858;8.252;2022-11-23T02:45:28;98998.16;;;6.35;83.36
46583;BME280;32309;48.858;8.252;2022-11-23T02:47:34;99001.56;;;6.36;83.55
46583;BME280;32309;48.858;8.252;2022-11-23T02:49:35;98991.25;;;6.36;84.10
46583;BME280;32309;48.858;8.252;2022-11-23T02:51:35;98990.53;;;6.33;84.41
46583;BME280;32309;48.858;8.252;2022-11-23T02:53:35;98994.84;;;6.33;83.49
46583;BME280;32309;48.858;8.252;2022-11-23T02:55:36;98985.66;;;6.29;83.58
46583;BME280;32309;48.858;8.252;2022-11-23T02:57:36;98979.03;;;6.25;83.64
46583;BME280;32309;48.858;8.252;2022-11-23T02:59:37;98980.06;;;6.22;83.47
46583;BME280;32309;48.858;8.252;2022-11-23T03:01:37;98972.44;;;6.21;82.91
46583;BME280;32309;48.858;8.252;2022-11-23T03:03:39;98971.59;;;6.20;83.21
46583;BME280;32309;48.858;8.252;2022-11-23T03:05:39;98971.59;;;6.20;83.62
46583;BME280;32309;48.858;8.252;2022-11-23T03:07:39;98963.16;;;6.18;82.81
46583;BME280;32309;48.858;8.252;2022-11-23T03:09:40;98959.66;;;6.19;83.59
46583;BME280;32309;48.858;8.252;2022-11-23T03:11:40;98964.72;;;6.21;83.17
46583;BME280;32309;48.858;8.252;2022-11-23T03:13:40;98962.03;;;6.22;83.60
46583;BME280;32309;48.858;8.252;2022-11-23T03:15:41;98966.28;;;6.23;84.59
46583;BME280;32309;48.858;8.252;2022-11-23T03:17:41;98970.41;;;6.26;84.03
46583;BME280;32309;48.858;8.252;2022-11-23T03:19:41;98968.75;;;6.25;83.88
46583;BME280;32309;48.858;8.252;2022-11-23T03:21:41;98968.75;;;6.25;83.99
46583;BME280;32309;48.858;8.252;2022-11-23T03:23:42;98968.84;;;6.23;84.17
46583;BME280;32309;48.858;8.252;2022-11-23T03:25:42;98967.19;;;6.22;83.42
46583;BME280;32309;48.858;8.252;2022-11-23T03:27:42;98969.75;;;6.22;82.84
46583;BME280;32309;48.858;8.252;2022-11-23T03:29:43;98979.25;;;6.22;82.71
46583;BME280;32309;48.858;8.252;2022-11-23T03:31:43;98974.16;;;6.20;83.19
46583;BME280;32309;48.858;8.252;2022-11-23T03:33:43;98976.72;;;6.20;82.73
46583;BME280;32309;48.858;8.252;2022-11-23T03:35:44;98977.56;;;6.21;82.78
46583;BME280;32309;48.858;8.252;2022-11-23T03:37:44;98978.38;;;6.21;83.40
46583;BME280;32309;48.858;8.252;2022-11-23T03:39:44;98978.38;;;6.21;83.42
46583;BME280;32309;48.858;8.252;2022-11-23T03:41:45;98973.25;;;6.21;83.21
46583;BME280;32309;48.858;8.252;2022-11-23T03:43:45;98974.00;;;6.23;84.07
46583;BME280;32309;48.858;8.252;2022-11-23T03:45:45;98972.34;;;6.22;83.91
46583;BME280;32309;48.858;8.252;2022-11-23T03:47:46;98971.69;;;6.19;83.12
46583;BME280;32309;48.858;8.252;2022-11-23T03:49:46;98971.78;;;6.17;82.71
46583;BME280;32309;48.858;8.252;2022-11-23T03:51:46;98971.22;;;6.12;83.61
46583;BME280;32309;48.858;8.252;2022-11-23T03:53:47;98970.41;;;6.11;84.39
46583;BME280;32309;48.858;8.252;2022-11-23T03:55:47;98973.09;;;6.10;84.35
46583;BME280;32309;48.858;8.252;2022-11-23T03:57:48;98967.94;;;6.10;84.34
46583;BME280;32309;48.858;8.252;2022-11-23T03:59:48;98971.31;;;6.10;84.26
46583;BME280;32309;48.858;8.252;2022-11-23T04:01:48;98974.81;;;6.09;83.93
46583;BME280;32309;48.858;8.252;2022-11-23T04:03:48;98968.75;;;6.10;84.54
46583;BME280;32309;48.858;8.252;2022-11-23T04:05:49;98968.75;;;6.10;84.64
46583;BME280;32309;48.858;8.252;2022-11-23T04:07:49;98968.75;;;6.10;84.86
46583;BME280;32309;48.858;8.252;2022-11-23T04:09:49;98966.19;;;6.10;85.31
46583;BME280;32309;48.858;8.252;2022-11-23T04:11:50;98964.41;;;6.11;85.11
46583;BME280;32309;48.858;8.252;2022-11-23T04:13:50;98961.03;;;6.10;84.73
46583;BME280;32309;48.858;8.252;2022-11-23T04:15:50;98965.44;;;6.08;85.04
46583;BME280;32309;48.858;8.252;2022-11-23T04:17:51;98963.88;;;6.06;85.46
46583;BME280;32309;48.858;8.252;2022-11-23T04:19:51;98958.09;;;6.02;85.47
46583;BME280;32309;48.858;8.252;2022-11-23T04:21:51;98959.75;;;6.03;86.04
46583;BME280;32309;48.858;8.252;2022-11-23T04:23:52;98954.53;;;6.05;85.24
46583;BME280;32309;48.858;8.252;2022-11-23T04:25:52;98958.00;;;6.04;85.41
46583;BME280;32309;48.858;8.252;2022-11-23T04:27:52;98956.16;;;6.06;85.49
46583;BME280;32309;48.858;8.252;2022-11-23T04:29:52;98948.53;;;6.04;84.91
46583;BME280;32309;48.858;8.252;2022-11-23T04:31:53;98960.56;;;6.04;84.44
46583;BME280;32309;48.858;8.252;2022-11-23T04:33:54;98952.03;;;6.03;85.03
46583;BME280;32309;48.858;8.252;2022-11-23T04:35:55;98948.53;;;6.04;85.84
46583;BME280;32309;48.858;8.252;2022-11-23T04:37:55;98954.44;;;6.06;84.67
46583;BME280;32309;48.858;8.252;2022-11-23T04:39:55;98953.56;;;6.06;84.51
46583;BME280;32309;48.858;8.252;2022-11-23T04:41:56;98953.50;;;6.07;84.70
46583;BME280;32309;48.858;8.252;2022-11-23T04:43:56;98952.66;;;6.07;85.12
46583;BME280;32309;48.858;8.252;2022-11-23T04:45:56;98957.91;;;6.05;84.69
46583;BME280;32309;48.858;8.252;2022-11-23T04:47:57;98954.53;;;6.05;84.11
46583;BME280;32309;48.858;8.252;2022-11-23T04:49:57;98954.44;;;6.06;84.29
46583;BME280;32309;48.858;8.252;2022-11-23T04:51:57;98955.34;;;6.05;84.32
46583;BME280;32309;48.858;8.252;2022-11-23T04:53:57;98959.56;;;6.06;84.72
46583;BME280;32309;48.858;8.252;2022-11-23T04:55:58;98951.00;;;6.06;84.86
46583;BME280;32309;48.858;8.252;2022-11-23T04:57:58;98958.81;;;6.04;84.51
46583;BME280;32309;48.858;8.252;2022-11-23T04:59:58;98959.84;;;6.02;83.70
46583;BME280;32309;48.858;8.252;2022-11-23T05:01:58;98954.88;;;5.98;84.70
46583;BME280;32309;48.858;8.252;2022-11-23T05:03:59;98953.13;;;5.99;84.38
46583;BME280;32309;48.858;8.252;2022-11-23T05:06:00;98957.50;;;5.97;84.62
46583;BME280;32309;48.858;8.252;2022-11-23T05:08:01;98956.66;;;5.96;84.68
46583;BME280;32309;48.858;8.252;2022-11-23T05:10:02;98952.47;;;5.95;85.31
46583;BME280;32309;48.858;8.252;2022-11-23T05:12:02;98960.09;;;5.97;84.97
46583;BME280;32309;48.858;8.252;2022-11-23T05:14:03;98961.09;;;5.94;84.54
46583;BME280;32309;48.858;8.252;2022-11-23T05:16:04;98956.88;;;5.93;85.17
46583;BME280;32309;48.858;8.252;2022-11-23T05:18:04;98960.34;;;5.92;84.55
46583;BME280;32309;48.858;8.252;2022-11-23T05:20:06;98959.72;;;5.89;84.14
46583;BME280;32309;48.858;8.252;2022-11-23T05:22:06;98964.22;;;5.85;84.58
46583;BME280;32309;48.858;8.252;2022-11-23T05:24:06;98958.16;;;5.86;85.16
46583;BME280;32309;48.858;8.252;2022-11-23T05:26:07;98961.84;;;5.82;84.77
46583;BME280;32309;48.858;8.252;2022-11-23T05:28:08;98961.00;;;5.81;84.17
46583;BME280;32309;48.858;8.252;2022-11-23T05:30:15;98960.25;;;5.79;83.59
46583;BME280;32309;48.858;8.252;2022-11-23T05:32:16;98965.31;;;5.81;85.25
46583;BME280;32309;48.858;8.252;2022-11-23T05:34:16;98965.56;;;5.76;84.33
46583;BME280;32309;48.858;8.252;2022-11-23T05:36:16;98959.63;;;5.76;84.13
46583;BME280;32309;48.858;8.252;2022-11-23T05:38:17;98963.00;;;5.76;84.57
46583;BME280;32309;48.858;8.252;2022-11-23T05:40:17;98959.78;;;5.73;84.23
46583;BME280;32309;48.858;8.252;2022-11-23T05:42:17;98965.84;;;5.72;84.11
46583;BME280;32309;48.858;8.252;2022-11-23T05:44:17;98967.56;;;5.71;84.13
46583;BME280;32309;48.858;8.252;2022-11-23T05:46:18;98971.91;;;5.71;83.87
46583;BME280;32309;48.858;8.252;2022-11-23T05:48:18;98969.59;;;5.66;83.73
46583;BME280;32309;48.858;8.252;2022-11-23T05:50:19;98972.16;;;5.66;84.42
46583;BME280;32309;48.858;8.252;2022-11-23T05:52:19;98976.47;;;5.65;83.75
46583;BME280;32309;48.858;8.252;2022-11-23T05:54:20;98976.56;;;5.64;83.49
46583;BME280;32309;48.858;8.252;2022-11-23T05:56:20;98978.41;;;5.62;84.17
46583;BME280;32309;48.858;8.252;2022-11-23T05:58:20;98981.97;;;5.59;84.12
46583;BME280;32309;48.858;8.252;2022-11-23T06:00:21;98982.06;;;5.58;83.01
46583;BME280;32309;48.858;8.252;2022-11-23T06:02:21;98988.97;;;5.57;83.55
46583;BME280;32309;48.858;8.252;2022-11-23T06:04:22;98982.25;;;5.55;84.16
46583;BME280;32309;48.858;8.252;2022-11-23T06:06:22;98983.25;;;5.52;83.99
46583;BME280;32309;48.858;8.252;2022-11-23T06:08:22;98984.97;;;5.52;84.17
46583;BME280;32309;48.858;8.252;2022-11-23T06:10:23;98973.22;;;5.47;83.72
46583;BME280;32309;48.858;8.252;2022-11-23T06:12:23;98981.03;;;5.46;83.26
46583;BME280;32309;48.858;8.252;2022-11-23T06:14:23;98982.94;;;5.42;83.10
46583;BME280;32309;48.858;8.252;2022-11-23T06:16:24;98977.88;;;5.41;83.39
46583;BME280;32309;48.858;8.252;2022-11-23T06:18:24;98980.44;;;5.41;84.31
46583;BME280;32309;48.858;8.252;2022-11-23T06:20:25;98986.50;;;5.40;84.09
46583;BME280;32309;48.858;8.252;2022-11-23T06:22:25;98983.22;;;5.38;84.17
46583;BME280;32309;48.858;8.252;2022-11-23T06:24:25;98977.25;;;5.37;83.50
46583;BME280;32309;48.858;8.252;2022-11-23T06:26:25;98977.31;;;5.36;84.06
46583;BME280;32309;48.858;8.252;2022-11-23T06:28:26;98979.16;;;5.33;83.38
46583;BME280;32309;48.858;8.252;2022-11-23T06:30:28;98983.38;;;5.35;84.44
46583;BME280;32309;48.858;8.252;2022-11-23T06:32:29;98974.94;;;5.32;83.70
46583;BME280;32309;48.858;8.252;2022-11-23T06:34:29;98984.38;;;5.32;84.24
46583;BME280;32309;48.858;8.252;2022-11-23T06:36:29;98979.41;;;5.29;83.64
46583;BME280;32309;48.858;8.252;2022-11-23T06:38:30;98975.13;;;5.29;83.88
46583;BME280;32309;48.858;8.252;2022-11-23T06:40:30;98979.41;;;5.29;84.00
46583;BME280;32309;48.858;8.252;2022-11-23T06:42:30;98979.41;;;5.29;83.72
46583;BME280;32309;48.858;8.252;2022-11-23T06:44:30;98982.06;;;5.27;84.10
46583;BME280;32309;48.858;8.252;2022-11-23T06:46:31;98976.94;;;5.27;84.03
46583;BME280;32309;48.858;8.252;2022-11-23T06:48:32;98982.25;;;5.24;83.71
46583;BME280;32309;48.858;8.252;2022-11-23T06:50:32;98983.91;;;5.25;83.77
46583;BME280;32309;48.858;8.252;2022-11-23T06:52:33;98985.63;;;5.25;83.81
46583;BME280;32309;48.858;8.252;2022-11-23T06:54:33;98974.53;;;5.24;83.39
46583;BME280;32309;48.858;8.252;2022-11-23T06:56:34;98987.47;;;5.23;83.51
46583;BME280;32309;48.858;8.252;2022-11-23T06:58:34;98987.47;;;5.23;84.10
46583;BME280;32309;48.858;8.252;2022-11-23T07:00:35;98995.09;;;5.24;83.51
46583;BME280;32309;48.858;8.252;2022-11-23T07:02:35;99001.03;;;5.25;83.54
46583;BME280;32309;48.858;8.252;2022-11-23T07:04:35;98998.56;;;5.23;83.00
46583;BME280;32309;48.858;8.252;2022-11-23T07:06:38;98997.66;;;5.24;84.20
46583;BME280;32309;48.858;8.252;2022-11-23T07:08:39;99002.03;;;5.22;82.98
46583;BME280;32309;48.858;8.252;2022-11-23T07:10:42;99007.28;;;5.21;83.08
46583;BME280;32309;48.858;8.252;2022-11-23T07:12:42;99009.94;;;5.19;83.74
46583;BME280;32309;48.858;8.252;2022-11-23T07:14:43;99007.53;;;5.16;83.26
46583;BME280;32309;48.858;8.252;2022-11-23T07:16:43;99009.19;;;5.17;83.34
46583;BME280;32309;48.858;8.252;2022-11-23T07:18:43;99008.34;;;5.16;82.97
46583;BME280;32309;48.858;8.252;2022-11-23T07:20:43;99014.31;;;5.17;82.95
46583;BME280;32309;48.858;8.252;2022-11-23T07:22:44;99016.06;;;5.16;83.68
46583;BME280;32309;48.858;8.252;2022-11-23T07:24:44;99021.13;;;5.18;83.77
46583;BME280;32309;48.858;8.252;2022-11-23T07:26:44;99022.09;;;5.15;82.79
46583;BME280;32309;48.858;8.252;2022-11-23T07:28:45;99029.72;;;5.17;83.12
46583;BME280;32309;48.858;8.252;2022-11-23T07:30:48;99022.88;;;5.18;83.95
46583;BME280;32309;48.858;8.252;2022-11-23T07:32:50;99025.44;;;5.18;83.41
46583;BME280;32309;48.858;8.252;2022-11-23T07:34:51;99031.28;;;5.20;83.48
46583;BME280;32309;48.858;8.252;2022-11-23T07:36:51;99023.50;;;5.21;83.87
46583;BME280;32309;48.858;8.252;2022-11-23T07:38:51;99021.69;;;5.23;83.85
46583;BME280;32309;48.858;8.252;2022-11-23T07:40:52;99024.16;;;5.25;83.73
46583;BME280;32309;48.858;8.252;2022-11-23T07:42:52;99024.94;;;5.27;83.52
46583;BME280;32309;48.858;8.252;2022-11-23T07:44:58;99019.78;;;5.27;83.09
46583;BME280;32309;48.858;8.252;2022-11-23T07:46:58;99010.22;;;5.29;83.46
46583;BME280;32309;48.858;8.252;2022-11-23T07:48:59;99022.19;;;5.30;83.71
46583;BME280;32309;48.858;8.252;2022-11-23T07:51:01;99018.50;;;5.34;83.66
46583;BME280;32309;48.858;8.252;2022-11-23T07:53:02;99027.06;;;5.35;83.69
46583;BME280;32309;48.858;8.252;2022-11-23T07:55:03;99027.78;;;5.37;83.53
46583;BME280;32309;48.858;8.252;2022-11-23T07:57:04;99024.22;;;5.39;83.10
46583;BME280;32309;48.858;8.252;2022-11-23T07:59:04;99023.22;;;5.42;84.03
46583;BME280;32309;48.858;8.252;2022-11-23T08:01:04;99023.88;;;5.45;83.54
46583;BME280;32309;48.858;8.252;2022-11-23T08:03:04;99016.91;;;5.47;83.44
46583;BME280;32309;48.858;8.252;2022-11-23T08:05:05;99021.97;;;5.49;83.72
46583;BME280;32309;48.858;8.252;2022-11-23T08:07:06;99021.81;;;5.52;83.80
46583;BME280;32309;48.858;8.252;2022-11-23T08:09:06;99019.03;;;5.55;83.33
46583;BME280;32309;48.858;8.252;2022-11-23T08:11:07;99017.22;;;5.57;83.76
46583;BME280;32309;48.858;8.252;2022-11-23T08:13:08;99016.22;;;5.60;83.44
46583;BME280;32309;48.858;8.252;2022-11-23T08:15:08;99015.31;;;5.61;83.11
46583;BME280;32309;48.858;8.252;2022-11-23T08:17:09;99011.72;;;5.63;82.88
46583;BME280;32309;48.858;8.252;2022-11-23T08:19:09;99009.00;;;5.66;82.88
46583;BME280;32309;48.858;8.252;2022-11-23T08:21:10;99007.16;;;5.69;83.79
46583;BME280;32309;48.858;8.252;2022-11-23T08:23:10;99013.84;;;5.71;82.79
46583;BME280;32309;48.858;8.252;2022-11-23T08:25:10;99003.41;;;5.74;83.06
46583;BME280;32309;48.858;8.252;2022-11-23T08:27:11;99010.13;;;5.77;83.58
46583;BME280;32309;48.858;8.252;2022-11-23T08:29:11;98998.00;;;5.79;83.46
46583;BME280;32309;48.858;8.252;2022-11-23T08:31:11;99009.03;;;5.81;83.69
46583;BME280;32309;48.858;8.252;2022-11-23T08:33:13;99001.94;;;5.84;83.58
46583;BME280;32309;48.858;8.252;2022-11-23T08:35:13;98998.47;;;5.86;83.08
46583;BME280;32309;48.858;8.252;2022-11-23T08:37:14;99009.31;;;5.91;83.76
46583;BME280;32309;48.858;8.252;2022-11-23T08:39:14;99001.44;;;5.94;83.46
46583;BME280;32309;48.858;8.252;2022-11-23T08:41:16;99002.25;;;5.94;82.70
46583;BME280;32309;48.858;8.252;2022-11-23T08:43:20;99002.97;;;5.96;82.37
46583;BME280;32309;48.858;8.252;2022-11-23T08:45:21;99008.06;;;5.98;83.12
46583;BME280;32309;48.858;8.252;2022-11-23T08:47:21;99001.94;;;6.01;82.54
46583;BME280;32309;48.858;8.252;2022-11-23T08:49:22;98995.84;;;6.02;82.58
46583;BME280;32309;48.858;8.252;2022-11-23T08:51:22;98999.97;;;6.04;82.51
46583;BME280;32309;48.858;8.252;2022-11-23T08:53:22;99000.72;;;6.06;83.03
46583;BME280;32309;48.858;8.252;2022-11-23T08:55:23;98995.38;;;6.09;82.35
46583;BME280;32309;48.858;8.252;2022-11-23T08:57:24;98999.63;;;6.10;82.26
46583;BME280;32309;48.858;8.252;2022-11-23T08:59:24;99004.56;;;6.13;82.90
46583;BME280;32309;48.858;8.252;2022-11-23T09:01:24;99000.91;;;6.18;81.96
46583;BME280;32309;48.858;8.252;2022-11-23T09:03:25;99000.72;;;6.21;82.26
46583;BME280;32309;48.858;8.252;2022-11-23T09:05:25;99004.78;;;6.25;81.47
46583;BME280;32309;48.858;8.252;2022-11-23T09:07:26;99007.91;;;6.30;81.60
46583;BME280;32309;48.858;8.252;2022-11-23T09:09:26;99009.38;;;6.34;82.04
46583;BME280;32309;48.858;8.252;2022-11-23T09:11:27;99000.63;;;6.37;82.38
46583;BME280;32309;48.858;8.252;2022-11-23T09:13:27;99003.84;;;6.40;82.05
46583;BME280;32309;48.858;8.252;2022-11-23T09:15:28;99009.63;;;6.44;81.70
46583;BME280;32309;48.858;8.252;2022-11-23T09:17:29;98998.31;;;6.46;81.41
46583;BME280;32309;48.858;8.252;2022-11-23T09:19:31;99006.69;;;6.50;81.59
46583;BME280;32309;48.858;8.252;2022-11-23T09:21:31;99004.75;;;6.54;80.86
46583;BME280;32309;48.858;8.252;2022-11-23T09:23:34;99004.47;;;6.58;81.12
46583;BME280;32309;48.858;8.252;2022-11-23T09:25:35;99000.78;;;6.62;80.92
46583;BME280;32309;48.858;8.252;2022-11-23T09:27:35;98998.03;;;6.65;80.52
46583;BME280;32309;48.858;8.252;2022-11-23T09:29:35;99006.47;;;6.68;80.53
46583;BME280;32309;48.858;8.252;2022-11-23T09:31:36;99007.13;;;6.71;80.26
46583;BME280;32309;48.858;8.252;2022-11-23T09:33:36;99011.25;;;6.74;80.93
46583;BME280;32309;48.858;8.252;2022-11-23T09:35:37;99017.97;;;6.76;79.94
46583;BME280;32309;48.858;8.252;2022-11-23T09:37:37;99011.78;;;6.79;80.19
46583;BME280;32309;48.858;8.252;2022-11-23T09:39:37;99009.97;;;6.81;79.49
46583;BME280;32309;48.858;8.252;2022-11-23T09:44:43;99010.94;;;6.93;79.46
46583;BME280;32309;48.858;8.252;2022-11-23T09:47:24;99016.72;;;6.96;79.32
46583;BME280;32309;48.858;8.252;2022-11-23T09:49:41;99007.16;;;6.98;78.48
46583;BME280;32309;48.858;8.252;2022-11-23T09:51:44;99011.28;;;7.01;78.93
46583;BME280;32309;48.858;8.252;2022-11-23T09:53:59;99010.28;;;7.04;77.39
46583;BME280;32309;48.858;8.252;2022-11-23T09:56:03;99005.72;;;7.07;78.17
46583;BME280;32309;48.858;8.252;2022-11-23T09:58:05;99004.81;;;7.08;77.80
46583;BME280;32309;48.858;8.252;2022-11-23T10:00:09;99017.59;;;7.10;77.64
46583;BME280;32309;48.858;8.252;2022-11-23T10:02:21;99012.44;;;7.10;76.20
46583;BME280;32309;48.858;8.252;2022-11-23T10:04:23;99007.94;;;7.13;76.22
46583;BME280;32309;48.858;8.252;2022-11-23T10:06:24;98999.19;;;7.16;75.81
46583;BME280;32309;48.858;8.252;2022-11-23T10:10:43;98997.66;;;7.26;75.12
46583;BME280;32309;48.858;8.252;2022-11-23T10:12:50;98998.09;;;7.33;77.30
46583;BME280;32309;48.858;8.252;2022-11-23T10:15:20;98999.16;;;7.43;75.20
46583;BME280;32309;48.858;8.252;2022-11-23T10:19:45;98991.63;;;7.53;75.32
46583;BME280;32309;48.858;8.252;2022-11-23T10:26:20;98990.94;;;7.64;73.96
46583;BME280;32309;48.858;8.252;2022-11-23T10:28:27;98987.44;;;7.65;75.75
46583;BME280;32309;48.858;8.252;2022-11-23T10:30:30;98982.09;;;7.68;74.21
46583;BME280;32309;48.858;8.252;2022-11-23T10:37:35;98978.88;;;7.90;72.32
46583;BME280;32309;48.858;8.252;2022-11-23T10:45:53;98973.09;;;8.12;71.93
46583;BME280;32309;48.858;8.252;2022-11-23T10:48:32;98970.31;;;8.15;72.57
46583;BME280;32309;48.858;8.252;2022-11-23T10:50:44;98961.34;;;8.21;72.83
46583;BME280;32309;48.858;8.252;2022-11-23T10:52:54;98963.81;;;8.23;70.83
46583;BME280;32309;48.858;8.252;2022-11-23T10:55:04;98960.19;;;8.25;71.27
46583;BME280;32309;48.858;8.252;2022-11-23T11:02:51;98946.53;;;8.36;71.22
46583;BME280;32309;48.858;8.252;2022-11-23T11:07:33;98936.81;;;8.40;71.10
46583;BME280;32309;48.858;8.252;2022-11-23T11:09:38;98940.03;;;8.43;69.54
46583;BME280;32309;48.858;8.252;2022-11-23T11:11:44;98943.34;;;8.45;69.75
46583;BME280;32309;48.858;8.252;2022-11-23T11:13:47;98933.84;;;8.46;69.42
46583;BME280;32309;48.858;8.252;2022-11-23T11:19:46;98927.63;;;8.48;69.93
46583;BME280;32309;48.858;8.252;2022-11-23T11:21:52;98930.81;;;8.52;71.51
46583;BME280;32309;48.858;8.252;2022-11-23T11:24:04;98922.38;;;8.50;69.12
46583;BME280;32309;48.858;8.252;2022-11-23T11:26:52;98917.09;;;8.52;69.21
46583;BME280;32309;48.858;8.252;2022-11-23T11:28:51;98925.66;;;8.52;67.55
46583;BME280;32309;48.858;8.252;2022-11-23T11:33:36;98917.78;;;8.54;67.08